createdAt,value
2018-06-10T00:00:07.757Z,21.90
2018-06-10T00:02:37.299Z,21.90
2018-06-10T00:05:06.848Z,21.80
2018-06-10T00:07:36.357Z,21.80
2018-06-10T00:10:05.907Z,21.80
2018-06-10T00:12:35.387Z,21.70
2018-06-10T00:15:04.992Z,21.60
2018-06-10T00:17:35.069Z,21.60
2018-06-10T00:20:04.582Z,21.60
2018-06-10T00:22:34.077Z,21.50
2018-06-10T00:25:03.614Z,21.50
2018-06-10T00:27:33.129Z,21.50
2018-06-10T00:32:31.734Z,21.40
2018-06-10T00:35:01.304Z,21.30
2018-06-10T00:37:30.751Z,21.30
2018-06-10T00:40:00.240Z,21.30
2018-06-10T00:44:58.749Z,21.30
2018-06-10T00:47:32.151Z,21.30
2018-06-10T00:50:05.301Z,21.30
2018-06-10T00:52:40.114Z,21.30
2018-06-10T00:55:13.903Z,21.40
2018-06-10T00:57:47.674Z,21.40
2018-06-10T01:00:21.315Z,21.30
2018-06-10T01:02:55.176Z,21.30
2018-06-10T01:05:28.452Z,21.30
2018-06-10T01:08:02.088Z,21.10
2018-06-10T01:10:35.938Z,21.10
2018-06-10T01:13:05.532Z,21.10
2018-06-10T01:15:35.018Z,21.10
2018-06-10T01:18:04.589Z,21.00
2018-06-10T01:20:34.085Z,20.90
2018-06-10T01:23:03.569Z,20.90
2018-06-10T01:25:33.087Z,20.80
2018-06-10T01:28:02.593Z,20.70
2018-06-10T01:33:01.178Z,20.70
2018-06-10T01:35:30.696Z,20.70
2018-06-10T01:40:29.234Z,20.60
2018-06-10T01:42:59.146Z,20.50
2018-06-10T01:45:28.670Z,20.40
2018-06-10T01:47:58.210Z,20.30
2018-06-10T01:50:27.733Z,20.30
2018-06-10T01:52:57.266Z,20.30
2018-06-10T01:55:26.759Z,20.20
2018-06-10T01:57:56.246Z,20.20
2018-06-10T02:02:54.744Z,20.10
2018-06-10T02:05:24.281Z,20.20
2018-06-10T02:07:53.752Z,20.30
2018-06-10T02:10:23.288Z,20.20
2018-06-10T02:12:52.812Z,20.00
2018-06-10T02:15:22.323Z,20.00
2018-06-10T02:17:51.793Z,20.00
2018-06-10T02:20:21.459Z,20.00
2018-06-10T02:25:19.885Z,20.00
2018-06-10T02:27:49.388Z,19.90
2018-06-10T02:30:18.946Z,19.90
2018-06-10T02:32:48.460Z,19.90
2018-06-10T02:35:17.946Z,19.80
2018-06-10T02:37:47.449Z,19.80
2018-06-10T02:40:16.898Z,19.80
2018-06-10T02:42:46.439Z,19.70
2018-06-10T02:45:15.957Z,19.70
2018-06-10T02:47:45.614Z,19.60
2018-06-10T02:50:15.092Z,19.50
2018-06-10T02:52:44.555Z,19.60
2018-06-10T02:55:14.044Z,19.50
2018-06-10T02:57:43.499Z,19.60
2018-06-10T03:00:12.963Z,19.50
2018-06-10T03:02:42.506Z,19.50
2018-06-10T03:05:12.046Z,19.50
2018-06-10T03:07:41.582Z,19.50
2018-06-10T03:10:11.113Z,19.40
2018-06-10T03:12:40.604Z,19.40
2018-06-10T03:15:10.148Z,19.30
2018-06-10T03:17:39.668Z,19.30
2018-06-10T03:20:09.192Z,19.30
2018-06-10T03:22:39.224Z,19.30
2018-06-10T03:25:08.780Z,19.40
2018-06-10T03:27:38.323Z,19.50
2018-06-10T03:30:07.877Z,19.50
2018-06-10T03:32:37.451Z,19.40
2018-06-10T03:35:07.397Z,19.40
2018-06-10T03:37:36.892Z,19.40
2018-06-10T03:40:06.511Z,19.40
2018-06-10T03:45:05.300Z,19.40
2018-06-10T03:47:34.868Z,19.50
2018-06-10T03:50:04.433Z,19.40
2018-06-10T03:52:33.994Z,19.40
2018-06-10T03:55:03.592Z,19.30
2018-06-10T03:57:33.234Z,19.40
2018-06-10T04:00:02.733Z,19.40
2018-06-10T04:02:32.191Z,19.30
2018-06-10T04:05:01.753Z,19.40
2018-06-10T04:10:00.258Z,19.40
2018-06-10T04:12:29.798Z,19.30
2018-06-10T04:14:59.467Z,19.30
2018-06-10T04:17:28.971Z,19.30
2018-06-10T04:19:58.596Z,19.40
2018-06-10T04:22:28.097Z,19.30
2018-06-10T04:27:26.680Z,19.30
2018-06-10T04:29:56.210Z,19.20
2018-06-10T04:32:25.784Z,19.20
2018-06-10T04:34:55.298Z,19.10
2018-06-10T04:37:24.837Z,19.10
2018-06-10T04:39:54.368Z,19.00
2018-06-10T04:42:23.888Z,19.00
2018-06-10T04:44:53.393Z,19.00
2018-06-10T04:47:23.027Z,19.00
2018-06-10T04:49:52.608Z,19.00
2018-06-10T04:52:22.115Z,18.90
2018-06-10T04:54:51.726Z,18.80
2018-06-10T04:57:21.259Z,18.80
2018-06-10T04:59:50.792Z,18.80
2018-06-10T05:02:20.350Z,18.80
2018-06-10T05:07:18.883Z,18.70
2018-06-10T05:09:48.930Z,18.70
2018-06-10T05:12:18.462Z,18.70
2018-06-10T05:14:47.987Z,18.70
2018-06-10T05:17:17.513Z,18.80
2018-06-10T05:19:47.150Z,18.80
2018-06-10T05:22:16.674Z,18.80
2018-06-10T05:24:46.207Z,18.80
2018-06-10T05:29:44.771Z,18.80
2018-06-10T05:32:14.333Z,18.80
2018-06-10T05:34:43.881Z,18.80
2018-06-10T05:37:13.456Z,18.80
2018-06-10T05:39:42.996Z,18.80
2018-06-10T05:42:12.588Z,18.80
2018-06-10T05:44:42.112Z,18.70
2018-06-10T05:47:11.693Z,18.60
2018-06-10T05:49:41.262Z,18.60
2018-06-10T05:52:10.775Z,18.60
2018-06-10T05:54:40.369Z,18.70
2018-06-10T05:57:09.908Z,18.70
2018-06-10T05:59:39.465Z,18.70
2018-06-10T06:04:38.039Z,18.70
2018-06-10T06:07:07.584Z,18.70
2018-06-10T06:09:37.118Z,18.70
2018-06-10T06:12:06.691Z,18.80
2018-06-10T06:14:36.255Z,18.80
2018-06-10T06:17:05.847Z,18.90
2018-06-10T06:19:35.491Z,18.80
2018-06-10T06:24:33.999Z,18.80
2018-06-10T06:27:03.584Z,18.70
2018-06-10T06:29:33.157Z,18.60
2018-06-10T06:32:02.791Z,18.50
2018-06-10T06:34:32.330Z,18.50
2018-06-10T06:37:01.909Z,18.40
2018-06-10T06:39:31.645Z,18.50
2018-06-10T06:42:01.212Z,18.50
2018-06-10T06:44:30.766Z,18.60
2018-06-10T06:47:00.293Z,18.70
2018-06-10T06:49:29.872Z,18.70
2018-06-10T06:51:59.443Z,18.70
2018-06-10T06:54:28.973Z,18.70
2018-06-10T06:56:58.546Z,18.70
2018-06-10T06:59:28.069Z,18.70
2018-06-10T07:01:58.029Z,18.70
2018-06-10T07:04:27.580Z,18.70
2018-06-10T07:09:26.157Z,18.70
2018-06-10T07:11:55.689Z,18.70
2018-06-10T07:14:25.247Z,18.70
2018-06-10T07:16:54.777Z,18.80
2018-06-10T07:19:25.585Z,18.70
2018-06-10T07:21:55.160Z,18.80
2018-06-10T07:24:24.688Z,18.80
2018-06-10T07:26:54.228Z,18.70
2018-06-10T07:29:23.807Z,18.80
2018-06-10T07:31:53.346Z,18.90
2018-06-10T07:34:22.977Z,18.80
2018-06-10T07:36:52.587Z,18.80
2018-06-10T07:39:22.109Z,18.80
2018-06-10T07:41:51.679Z,18.90
2018-06-10T07:44:21.200Z,18.90
2018-06-10T07:46:51.170Z,18.90
2018-06-10T07:49:20.687Z,18.90
2018-06-10T07:51:50.229Z,18.90
2018-06-10T07:54:19.746Z,18.90
2018-06-10T07:56:49.302Z,18.90
2018-06-10T07:59:18.860Z,19.00
2018-06-10T08:01:48.375Z,19.00
2018-06-10T08:04:22.465Z,18.90
2018-06-10T08:06:52.003Z,18.90
2018-06-10T08:09:21.534Z,18.80
2018-06-10T08:11:51.156Z,18.80
2018-06-10T08:14:20.686Z,18.80
2018-06-10T08:16:50.437Z,18.80
2018-06-10T08:19:19.972Z,18.90
2018-06-10T08:21:49.509Z,19.00
2018-06-10T08:24:19.039Z,19.00
2018-06-10T08:26:48.568Z,18.90
2018-06-10T08:29:18.117Z,18.90
2018-06-10T08:31:47.661Z,18.90
2018-06-10T08:34:17.178Z,18.90
2018-06-10T08:36:46.790Z,19.00
2018-06-10T08:39:16.291Z,19.10
2018-06-10T08:41:45.839Z,19.10
2018-06-10T08:44:15.383Z,19.20
2018-06-10T08:46:44.943Z,19.10
2018-06-10T08:49:14.693Z,19.20
2018-06-10T08:51:44.322Z,19.30
2018-06-10T08:54:13.798Z,19.20
2018-06-10T08:56:43.295Z,19.30
2018-06-10T08:59:12.843Z,19.40
2018-06-10T09:01:42.740Z,19.50
2018-06-10T09:04:12.359Z,19.50
2018-06-10T09:06:41.927Z,19.60
2018-06-10T09:09:11.865Z,19.60
2018-06-10T09:11:41.405Z,19.60
2018-06-10T09:14:10.970Z,19.70
2018-06-10T09:16:40.494Z,19.70
2018-06-10T09:19:10.058Z,19.70
2018-06-10T09:21:39.616Z,19.90
2018-06-10T09:24:09.208Z,20.00
2018-06-10T09:26:38.711Z,20.20
2018-06-10T09:29:08.233Z,20.50
2018-06-10T09:31:37.824Z,20.80
2018-06-10T09:34:07.312Z,21.00
2018-06-10T09:36:37.319Z,21.10
2018-06-10T09:39:08.273Z,21.10
2018-06-10T09:41:37.785Z,21.10
2018-06-10T09:44:07.332Z,21.10
2018-06-10T09:46:36.944Z,21.10
2018-06-10T09:49:06.867Z,21.10
2018-06-10T09:51:36.416Z,21.30
2018-06-10T09:54:06.026Z,21.40
2018-06-10T09:56:35.564Z,21.40
2018-06-10T09:59:05.277Z,21.40
2018-06-10T10:01:34.815Z,21.50
2018-06-10T10:04:04.395Z,21.50
2018-06-10T10:06:33.944Z,21.50
2018-06-10T10:09:03.822Z,21.50
2018-06-10T10:11:33.393Z,21.50
2018-06-10T10:14:03.463Z,21.60
2018-06-10T10:16:33.010Z,21.70
2018-06-10T10:19:02.550Z,21.90
2018-06-10T10:21:32.574Z,21.80
2018-06-10T10:24:02.118Z,21.70
2018-06-10T10:26:31.668Z,21.70
2018-06-10T10:29:01.342Z,21.80
2018-06-10T10:31:30.842Z,21.70
2018-06-10T10:34:00.400Z,21.60
2018-06-10T10:36:29.963Z,21.50
2018-06-10T10:38:59.480Z,21.50
2018-06-10T10:41:29.010Z,21.40
2018-06-10T10:43:58.543Z,21.40
2018-06-10T10:46:28.069Z,21.30
2018-06-10T10:48:57.614Z,21.40
2018-06-10T10:51:27.147Z,21.70
2018-06-10T10:53:56.686Z,21.80
2018-06-10T10:56:26.689Z,21.90
2018-06-10T10:58:56.197Z,22.10
2018-06-10T11:01:25.716Z,22.30
2018-06-10T11:03:55.339Z,22.50
2018-06-10T11:06:24.843Z,22.30
2018-06-10T11:11:23.492Z,22.20
2018-06-10T11:13:53.045Z,22.20
2018-06-10T11:16:22.567Z,22.30
2018-06-10T11:18:52.091Z,22.30
2018-06-10T11:21:21.603Z,22.30
2018-06-10T11:23:51.095Z,22.20
2018-06-10T11:26:20.608Z,22.10
2018-06-10T11:28:50.138Z,22.10
2018-06-10T11:31:19.657Z,22.20
2018-06-10T11:33:49.188Z,22.30
2018-06-10T11:36:19.144Z,22.20
2018-06-10T11:38:48.670Z,22.20
2018-06-10T11:41:18.239Z,22.10
2018-06-10T11:43:47.790Z,22.40
2018-06-10T11:46:17.364Z,22.70
2018-06-10T11:48:46.884Z,22.90
2018-06-10T11:51:16.503Z,23.30
2018-06-10T11:53:45.987Z,23.50
2018-06-10T11:56:15.610Z,23.50
2018-06-10T11:58:45.140Z,23.90
2018-06-10T12:01:14.689Z,23.90
2018-06-10T12:03:44.315Z,23.80
2018-06-10T12:06:13.844Z,23.70
2018-06-10T12:08:43.506Z,23.90
2018-06-10T12:11:12.986Z,24.20
2018-06-10T12:13:42.582Z,24.60
2018-06-10T12:16:12.096Z,24.80
2018-06-10T12:18:41.607Z,24.60
2018-06-10T12:21:11.155Z,24.30
2018-06-10T12:23:40.701Z,24.30
2018-06-10T12:26:10.251Z,24.30
2018-06-10T12:28:39.986Z,24.60
2018-06-10T12:33:38.652Z,24.30
2018-06-10T12:36:08.214Z,24.70
2018-06-10T12:38:37.857Z,24.80
2018-06-10T12:41:07.418Z,25.20
2018-06-10T12:43:36.969Z,25.40
2018-06-10T12:46:06.529Z,25.10
2018-06-10T12:48:36.083Z,24.90
2018-06-10T12:51:05.571Z,24.30
2018-06-10T12:53:35.089Z,24.00
2018-06-10T12:56:04.648Z,24.00
2018-06-10T12:58:34.133Z,24.20
2018-06-10T13:03:32.826Z,24.30
2018-06-10T13:06:02.381Z,24.30
2018-06-10T13:08:31.927Z,24.20
2018-06-10T13:11:01.516Z,24.30
2018-06-10T13:13:31.003Z,24.30
2018-06-10T13:16:00.532Z,24.20
2018-06-10T13:18:30.082Z,23.80
2018-06-10T13:23:28.631Z,23.50
2018-06-10T13:25:58.152Z,23.50
2018-06-10T13:28:27.694Z,23.60
2018-06-10T13:30:57.190Z,24.10
2018-06-10T13:33:26.719Z,24.80
2018-06-10T13:35:56.288Z,25.20
2018-06-10T13:38:25.864Z,25.00
2018-06-10T13:40:55.430Z,24.60
2018-06-10T13:43:24.988Z,24.90
2018-06-10T13:45:54.620Z,24.90
2018-06-10T13:48:24.087Z,24.70
2018-06-10T13:50:53.607Z,25.00
2018-06-10T13:53:23.600Z,25.20
2018-06-10T13:55:53.185Z,25.30
2018-06-10T13:58:22.715Z,25.00
2018-06-10T14:00:52.251Z,25.00
2018-06-10T14:03:21.823Z,25.10
2018-06-10T14:05:51.306Z,25.00
2018-06-10T14:08:20.841Z,25.00
2018-06-10T14:10:50.413Z,25.10
2018-06-10T14:13:19.955Z,25.10
2018-06-10T14:15:49.425Z,24.80
2018-06-10T14:18:19.001Z,24.70
2018-06-10T14:20:48.544Z,24.60
2018-06-10T14:23:18.125Z,24.60
2018-06-10T14:25:47.650Z,24.60
2018-06-10T14:28:17.331Z,24.20
2018-06-10T14:30:46.874Z,24.30
2018-06-10T14:33:16.429Z,24.40
2018-06-10T14:35:45.985Z,24.60
2018-06-10T14:38:15.566Z,24.70
2018-06-10T14:40:45.122Z,24.80
2018-06-10T14:43:14.645Z,24.70
2018-06-10T14:45:44.246Z,24.60
2018-06-10T14:50:43.191Z,24.70
2018-06-10T14:53:12.715Z,25.20
2018-06-10T14:55:42.328Z,25.50
2018-06-10T14:58:11.900Z,25.70
2018-06-10T15:00:41.426Z,26.00
2018-06-10T15:03:10.986Z,26.10
2018-06-10T15:05:40.480Z,26.00
2018-06-10T15:10:39.064Z,26.10
2018-06-10T15:13:08.689Z,26.00
2018-06-10T15:15:38.300Z,26.20
2018-06-10T15:18:07.856Z,26.00
2018-06-10T15:20:37.361Z,26.20
2018-06-10T15:23:06.933Z,26.40
2018-06-10T15:25:36.515Z,26.60
2018-06-10T15:28:06.087Z,26.10
2018-06-10T15:30:35.648Z,26.00
2018-06-10T15:33:05.220Z,25.70
2018-06-10T15:35:34.852Z,25.70
2018-06-10T15:38:04.396Z,25.60
2018-06-10T15:40:33.990Z,25.80
2018-06-10T15:43:03.544Z,26.00
2018-06-10T15:45:33.075Z,26.50
2018-06-10T15:48:02.640Z,26.50
2018-06-10T15:50:32.566Z,26.10
2018-06-10T15:53:02.089Z,26.30
2018-06-10T15:58:01.013Z,26.40
2018-06-10T16:00:30.553Z,26.20
2018-06-10T16:03:00.106Z,25.70
2018-06-10T16:05:29.622Z,25.50
2018-06-10T16:07:59.226Z,25.50
2018-06-10T16:10:28.788Z,25.20
2018-06-10T16:12:58.440Z,25.00
2018-06-10T16:15:27.952Z,25.00
2018-06-10T16:17:57.469Z,25.10
2018-06-10T16:20:26.974Z,25.30
2018-06-10T16:22:56.586Z,25.30
2018-06-10T16:25:26.165Z,25.20
2018-06-10T16:27:55.737Z,24.90
2018-06-10T16:30:25.295Z,24.80
2018-06-10T16:32:54.844Z,25.20
2018-06-10T16:35:24.430Z,25.80
2018-06-10T16:37:54.008Z,26.60
2018-06-10T16:40:23.620Z,27.40
2018-06-10T16:42:53.144Z,27.60
2018-06-10T16:45:22.642Z,27.40
2018-06-10T16:47:52.177Z,27.10
2018-06-10T16:50:21.745Z,27.20
2018-06-10T16:52:51.323Z,27.40
2018-06-10T16:55:20.905Z,27.40
2018-06-10T16:57:50.435Z,27.50
2018-06-10T17:00:19.974Z,27.20
2018-06-10T17:02:49.447Z,27.10
2018-06-10T17:05:19.015Z,26.40
2018-06-10T17:07:48.528Z,25.60
2018-06-10T17:10:18.497Z,25.40
2018-06-10T17:12:48.040Z,25.50
2018-06-10T17:15:17.549Z,26.20
2018-06-10T17:17:47.098Z,26.70
2018-06-10T17:20:16.699Z,26.90
2018-06-10T17:22:46.194Z,27.20
2018-06-10T17:25:15.719Z,26.90
2018-06-10T17:27:45.261Z,27.20
2018-06-10T17:30:14.804Z,27.50
2018-06-10T17:32:44.872Z,27.50
2018-06-10T17:35:14.400Z,27.40
2018-06-10T17:40:13.041Z,27.70
2018-06-10T17:42:42.565Z,27.90
2018-06-10T17:45:12.227Z,27.90
2018-06-10T17:47:41.773Z,27.60
2018-06-10T17:50:11.324Z,27.90
2018-06-10T17:52:40.872Z,27.50
2018-06-10T17:55:10.393Z,27.20
2018-06-10T17:57:40.032Z,27.40
2018-06-10T18:00:09.656Z,27.10
2018-06-10T18:02:39.366Z,27.20
2018-06-10T18:05:08.896Z,27.30
2018-06-10T18:07:38.482Z,27.20
2018-06-10T18:10:08.419Z,27.00
2018-06-10T18:12:37.936Z,26.80
2018-06-10T18:15:07.576Z,26.50
2018-06-10T18:17:37.233Z,25.70
2018-06-10T18:20:06.793Z,24.90
2018-06-10T18:22:36.328Z,24.40
2018-06-10T18:25:06.098Z,24.20
2018-06-10T18:27:35.615Z,23.80
2018-06-10T18:30:06.478Z,23.60
2018-06-10T18:32:36.058Z,23.40
2018-06-10T18:35:05.838Z,23.10
2018-06-10T18:37:35.379Z,23.00
2018-06-10T18:40:05.261Z,23.00
2018-06-10T18:42:35.051Z,22.80
2018-06-10T18:45:09.451Z,22.60
2018-06-10T18:47:38.998Z,22.40
2018-06-10T18:50:08.548Z,22.20
2018-06-10T18:55:07.044Z,21.90
2018-06-10T18:57:37.094Z,21.90
2018-06-10T19:00:06.666Z,21.60
2018-06-10T19:02:37.311Z,21.40
2018-06-10T19:05:08.184Z,21.40
2018-06-10T19:07:37.830Z,21.50
2018-06-10T19:10:07.386Z,21.40
2018-06-10T19:12:36.941Z,21.40
2018-06-10T19:15:06.494Z,21.30
2018-06-10T19:17:36.012Z,21.20
2018-06-10T19:20:06.104Z,21.00
2018-06-10T19:22:36.500Z,20.90
2018-06-10T19:27:35.008Z,20.60
2018-06-10T19:30:04.721Z,20.70
2018-06-10T19:32:34.280Z,20.50
2018-06-10T19:35:04.152Z,20.50
2018-06-10T19:37:33.712Z,20.30
2018-06-10T19:40:03.277Z,20.30
2018-06-10T19:42:33.084Z,20.10
2018-06-10T19:45:02.629Z,19.90
2018-06-10T19:47:32.246Z,19.80
2018-06-10T19:50:01.983Z,19.60
2018-06-10T19:52:31.544Z,19.60
2018-06-10T19:55:01.127Z,19.60
2018-06-10T19:57:30.731Z,19.60
2018-06-10T20:00:00.292Z,19.60
2018-06-10T20:04:59.251Z,19.40
2018-06-10T20:07:28.884Z,19.40
2018-06-10T20:09:58.431Z,19.40
2018-06-10T20:12:28.000Z,19.30
2018-06-10T20:14:58.080Z,19.20
2018-06-10T20:17:27.590Z,19.10
2018-06-10T20:19:57.128Z,19.00
2018-06-10T20:22:26.755Z,18.90
2018-06-10T20:24:56.268Z,18.80
2018-06-10T20:27:25.844Z,18.70
2018-06-10T20:29:55.364Z,18.60
2018-06-10T20:32:24.965Z,18.50
2018-06-10T20:37:24.574Z,18.40
2018-06-10T20:44:52.375Z,18.20
2018-06-10T20:47:21.870Z,18.20
2018-06-10T20:49:51.480Z,18.20
2018-06-10T20:54:50.376Z,18.00
2018-06-10T20:57:19.914Z,18.00
2018-06-10T20:59:49.423Z,17.90
2018-06-10T21:02:19.188Z,17.80
2018-06-10T21:04:48.744Z,17.90
2018-06-10T21:07:18.327Z,17.80
2018-06-10T21:09:47.887Z,17.70
2018-06-10T21:12:17.387Z,17.70
2018-06-10T21:14:47.296Z,17.70
2018-06-10T21:17:16.823Z,17.60
2018-06-10T21:19:46.379Z,17.60
2018-06-10T21:22:15.903Z,17.50
2018-06-10T21:24:45.385Z,17.40
2018-06-10T21:27:14.899Z,17.40
2018-06-10T21:29:44.571Z,17.40
2018-06-10T21:32:14.091Z,17.40
2018-06-10T21:34:43.668Z,17.40
2018-06-10T21:37:13.248Z,17.40
2018-06-10T21:39:42.811Z,17.30
2018-06-10T21:42:12.392Z,17.20
2018-06-10T21:44:42.068Z,17.10
2018-06-10T21:47:11.574Z,17.00
2018-06-10T21:49:41.109Z,17.00
2018-06-10T21:52:10.676Z,17.00
2018-06-10T21:54:40.180Z,16.70
2018-06-10T21:57:09.747Z,16.60
2018-06-10T21:59:39.243Z,16.70
2018-06-10T22:02:08.821Z,16.70
2018-06-10T22:04:38.382Z,16.70
2018-06-10T22:07:07.903Z,16.70
2018-06-10T22:09:37.805Z,16.70
2018-06-10T22:12:07.386Z,16.70
2018-06-10T22:14:37.546Z,16.80
2018-06-10T22:17:07.105Z,16.80
2018-06-10T22:19:36.677Z,16.80
2018-06-10T22:22:06.341Z,16.90
2018-06-10T22:24:35.874Z,16.80
2018-06-10T22:27:05.457Z,16.80
2018-06-10T22:29:34.967Z,16.80
2018-06-10T22:32:04.519Z,16.90
2018-06-10T22:34:34.047Z,17.00
2018-06-10T22:37:03.601Z,17.00
2018-06-10T22:39:33.132Z,17.00
2018-06-10T22:42:02.847Z,17.00
2018-06-10T22:44:32.372Z,17.00
2018-06-10T22:47:01.974Z,17.10
2018-06-10T22:49:31.460Z,17.00
2018-06-10T22:52:00.955Z,17.10
2018-06-10T22:54:39.851Z,17.10
2018-06-10T22:57:09.969Z,17.10
2018-06-10T22:59:39.492Z,17.10
2018-06-10T23:02:10.378Z,17.00
2018-06-10T23:04:39.941Z,17.00
2018-06-10T23:07:09.553Z,17.00
2018-06-10T23:09:39.113Z,17.00
2018-06-10T23:12:08.711Z,16.90
2018-06-10T23:14:38.315Z,16.80
2018-06-10T23:17:07.822Z,16.90
2018-06-10T23:19:37.483Z,16.90
2018-06-10T23:22:07.017Z,16.90
2018-06-10T23:24:36.568Z,16.90
2018-06-10T23:27:06.116Z,16.80
2018-06-10T23:29:35.704Z,16.80
2018-06-10T23:32:05.256Z,16.70
2018-06-10T23:34:34.772Z,16.80
2018-06-10T23:37:04.307Z,16.80
2018-06-10T23:39:33.828Z,16.70
2018-06-10T23:42:03.377Z,16.70
2018-06-10T23:44:32.934Z,16.60
2018-06-10T23:47:02.453Z,16.60
2018-06-10T23:52:01.025Z,16.50
2018-06-10T23:54:30.518Z,16.50
2018-06-10T23:57:00.019Z,16.50
2018-06-10T23:59:29.544Z,16.50
